sensor_id;sensor_type;location;lat;lon;timestamp;pressure;altitude;pressure_sealevel;temperature;humidity
37694;BME280;23531;50.122;8.644;2023-02-15T00:01:38;102119.06;;;4.36;nan
37694;BME280;23531;50.122;8.644;2023-02-15T00:03:39;102121.13;;;4.33;nan
37694;BME280;23531;50.122;8.644;2023-02-15T00:05:40;102115.91;;;4.31;nan
37694;BME280;23531;50.122;8.644;2023-02-15T00:07:42;102106.06;;;4.43;nan
37694;BME280;23531;50.122;8.644;2023-02-15T00:09:45;102106.72;;;4.56;nan
37694;BME280;23531;50.122;8.644;2023-02-15T00:11:47;102106.28;;;4.51;nan
37694;BME280;23531;50.122;8.644;2023-02-15T00:13:50;102103.88;;;4.48;nan
37694;BME280;23531;50.122;8.644;2023-02-15T00:15:52;102096.31;;;4.53;nan
37694;BME280;23531;50.122;8.644;2023-02-15T00:17:53;102091.97;;;4.52;nan
37694;BME280;23531;50.122;8.644;2023-02-15T00:19:54;102094.56;;;4.63;nan
37694;BME280;23531;50.122;8.644;2023-02-15T00:21:55;102097.16;;;4.33;nan
37694;BME280;23531;50.122;8.644;2023-02-15T00:23:57;102091.09;;;4.31;nan
37694;BME280;23531;50.122;8.644;2023-02-15T00:26:07;102089.44;;;4.51;nan
37694;BME280;23531;50.122;8.644;2023-02-15T00:28:09;102082.44;;;4.50;nan
37694;BME280;23531;50.122;8.644;2023-02-15T00:30:10;102089.28;;;4.52;nan
37694;BME280;23531;50.122;8.644;2023-02-15T00:32:12;102080.69;;;4.39;nan
37694;BME280;23531;50.122;8.644;2023-02-15T00:34:13;102075.53;;;4.26;nan
37694;BME280;23531;50.122;8.644;2023-02-15T00:36:15;102077.84;;;4.20;nan
37694;BME280;23531;50.122;8.644;2023-02-15T00:38:17;102084.31;;;4.38;nan
37694;BME280;23531;50.122;8.644;2023-02-15T00:40:18;102088.50;;;4.20;nan
37694;BME280;23531;50.122;8.644;2023-02-15T00:42:21;102085.47;;;3.92;nan
37694;BME280;23531;50.122;8.644;2023-02-15T00:44:22;102088.38;;;3.89;nan
37694;BME280;23531;50.122;8.644;2023-02-15T00:46:23;102086.75;;;3.66;nan
37694;BME280;23531;50.122;8.644;2023-02-15T00:48:24;102085.56;;;3.59;nan
37694;BME280;23531;50.122;8.644;2023-02-15T00:50:26;102086.50;;;3.80;nan
37694;BME280;23531;50.122;8.644;2023-02-15T00:52:27;102079.31;;;3.92;nan
37694;BME280;23531;50.122;8.644;2023-02-15T00:54:28;102087.28;;;3.92;nan
37694;BME280;23531;50.122;8.644;2023-02-15T00:56:29;102084.25;;;3.96;nan
37694;BME280;23531;50.122;8.644;2023-02-15T00:58:32;102081.03;;;4.14;nan
37694;BME280;23531;50.122;8.644;2023-02-15T01:00:33;102079.88;;;3.95;nan
37694;BME280;23531;50.122;8.644;2023-02-15T01:02:35;102083.31;;;3.86;nan
37694;BME280;23531;50.122;8.644;2023-02-15T01:04:36;102085.44;;;4.04;nan
37694;BME280;23531;50.122;8.644;2023-02-15T01:06:37;102076.03;;;4.20;nan
37694;BME280;23531;50.122;8.644;2023-02-15T01:08:39;102083.53;;;3.94;nan
37694;BME280;23531;50.122;8.644;2023-02-15T01:10:40;102076.13;;;3.66;nan
37694;BME280;23531;50.122;8.644;2023-02-15T01:12:41;102079.56;;;3.46;nan
37694;BME280;23531;50.122;8.644;2023-02-15T01:14:44;102083.50;;;3.51;nan
37694;BME280;23531;50.122;8.644;2023-02-15T01:16:45;102085.81;;;3.56;nan
37694;BME280;23531;50.122;8.644;2023-02-15T01:18:47;102071.56;;;3.57;nan
37694;BME280;23531;50.122;8.644;2023-02-15T01:20:48;102075.09;;;3.46;nan
37694;BME280;23531;50.122;8.644;2023-02-15T01:22:50;102072.53;;;3.45;nan
37694;BME280;23531;50.122;8.644;2023-02-15T01:24:51;102067.00;;;3.37;nan
37694;BME280;23531;50.122;8.644;2023-02-15T01:26:52;102068.84;;;3.25;nan
37694;BME280;23531;50.122;8.644;2023-02-15T01:28:53;102064.81;;;3.31;nan
37694;BME280;23531;50.122;8.644;2023-02-15T01:30:56;102062.13;;;3.53;nan
37694;BME280;23531;50.122;8.644;2023-02-15T01:32:59;102058.00;;;3.60;nan
37694;BME280;23531;50.122;8.644;2023-02-15T01:35:00;102057.94;;;3.82;nan
37694;BME280;23531;50.122;8.644;2023-02-15T01:37:02;102056.00;;;3.73;nan
37694;BME280;23531;50.122;8.644;2023-02-15T01:39:03;102054.63;;;3.90;nan
37694;BME280;23531;50.122;8.644;2023-02-15T01:41:05;102047.34;;;4.03;nan
37694;BME280;23531;50.122;8.644;2023-02-15T01:43:24;102045.91;;;4.20;nan
37694;BME280;23531;50.122;8.644;2023-02-15T01:45:29;102051.16;;;4.10;nan
37694;BME280;23531;50.122;8.644;2023-02-15T01:47:33;102052.25;;;4.08;nan
37694;BME280;23531;50.122;8.644;2023-02-15T01:49:36;102048.38;;;4.12;nan
37694;BME280;23531;50.122;8.644;2023-02-15T01:51:41;102045.28;;;4.27;nan
37694;BME280;23531;50.122;8.644;2023-02-15T01:53:45;102042.81;;;4.35;nan
37694;BME280;23531;50.122;8.644;2023-02-15T01:55:49;102039.94;;;4.27;nan
37694;BME280;23531;50.122;8.644;2023-02-15T01:57:51;102038.69;;;4.31;nan
37694;BME280;23531;50.122;8.644;2023-02-15T01:59:53;102033.97;;;4.35;nan
37694;BME280;23531;50.122;8.644;2023-02-15T02:01:56;102042.03;;;4.24;nan
37694;BME280;23531;50.122;8.644;2023-02-15T02:04:01;102039.53;;;4.11;nan
37694;BME280;23531;50.122;8.644;2023-02-15T02:06:05;102042.56;;;4.07;nan
37694;BME280;23531;50.122;8.644;2023-02-15T02:08:06;102042.91;;;3.92;nan
37694;BME280;23531;50.122;8.644;2023-02-15T02:10:10;102042.44;;;3.87;nan
37694;BME280;23531;50.122;8.644;2023-02-15T02:12:12;102045.28;;;3.95;nan
37694;BME280;23531;50.122;8.644;2023-02-15T02:14:13;102040.72;;;3.86;nan
37694;BME280;23531;50.122;8.644;2023-02-15T02:16:16;102028.06;;;3.79;nan
37694;BME280;23531;50.122;8.644;2023-02-15T02:18:26;102026.19;;;3.70;nan
37694;BME280;23531;50.122;8.644;2023-02-15T02:20:38;102027.06;;;3.59;nan
37694;BME280;23531;50.122;8.644;2023-02-15T02:22:58;102021.47;;;3.62;nan
37694;BME280;23531;50.122;8.644;2023-02-15T02:25:10;102021.06;;;3.78;nan
37694;BME280;23531;50.122;8.644;2023-02-15T02:27:22;102028.25;;;3.66;nan
37694;BME280;23531;50.122;8.644;2023-02-15T02:29:31;102018.63;;;3.43;nan
37694;BME280;23531;50.122;8.644;2023-02-15T02:33:55;102022.47;;;3.61;nan
37694;BME280;23531;50.122;8.644;2023-02-15T02:36:03;102020.09;;;3.47;nan
37694;BME280;23531;50.122;8.644;2023-02-15T02:38:08;102018.25;;;3.58;nan
37694;BME280;23531;50.122;8.644;2023-02-15T02:40:13;102020.75;;;3.71;nan
37694;BME280;23531;50.122;8.644;2023-02-15T02:42:18;102018.75;;;3.73;nan
37694;BME280;23531;50.122;8.644;2023-02-15T02:44:24;102015.19;;;3.95;nan
37694;BME280;23531;50.122;8.644;2023-02-15T02:46:28;102023.88;;;4.18;nan
37694;BME280;23531;50.122;8.644;2023-02-15T02:48:32;102010.31;;;4.21;nan
37694;BME280;23531;50.122;8.644;2023-02-15T02:50:38;102009.88;;;4.16;nan
37694;BME280;23531;50.122;8.644;2023-02-15T02:52:41;102013.75;;;4.12;nan
37694;BME280;23531;50.122;8.644;2023-02-15T02:54:42;102009.41;;;4.11;nan
37694;BME280;23531;50.122;8.644;2023-02-15T02:56:44;102010.31;;;4.21;nan
37694;BME280;23531;50.122;8.644;2023-02-15T02:58:48;102002.59;;;4.38;nan
37694;BME280;23531;50.122;8.644;2023-02-15T03:00:52;102008.09;;;4.47;nan
37694;BME280;23531;50.122;8.644;2023-02-15T03:02:56;102005.78;;;4.32;nan
37694;BME280;23531;50.122;8.644;2023-02-15T03:05:05;101997.91;;;4.31;nan
37694;BME280;23531;50.122;8.644;2023-02-15T03:07:11;101997.97;;;4.20;nan
37694;BME280;23531;50.122;8.644;2023-02-15T03:09:15;101991.25;;;4.16;nan
37694;BME280;23531;50.122;8.644;2023-02-15T03:11:19;101988.66;;;4.25;nan
37694;BME280;23531;50.122;8.644;2023-02-15T03:13:21;101985.91;;;4.16;nan
37694;BME280;23531;50.122;8.644;2023-02-15T03:15:25;101982.47;;;3.83;nan
37694;BME280;23531;50.122;8.644;2023-02-15T03:17:47;101979.09;;;3.81;nan
37694;BME280;23531;50.122;8.644;2023-02-15T03:19:52;101981.53;;;3.73;nan
37694;BME280;23531;50.122;8.644;2023-02-15T03:21:57;101984.78;;;3.77;nan
37694;BME280;23531;50.122;8.644;2023-02-15T03:24:11;101984.03;;;3.54;nan
37694;BME280;23531;50.122;8.644;2023-02-15T03:26:13;101988.97;;;3.58;nan
37694;BME280;23531;50.122;8.644;2023-02-15T03:28:15;101987.22;;;3.48;nan
37694;BME280;23531;50.122;8.644;2023-02-15T03:30:19;101987.81;;;3.40;nan
37694;BME280;23531;50.122;8.644;2023-02-15T03:32:22;101981.91;;;3.37;nan
37694;BME280;23531;50.122;8.644;2023-02-15T03:34:24;101994.81;;;3.73;nan
37694;BME280;23531;50.122;8.644;2023-02-15T03:36:27;101980.31;;;3.98;nan
37694;BME280;23531;50.122;8.644;2023-02-15T03:38:30;101981.56;;;3.94;nan
37694;BME280;23531;50.122;8.644;2023-02-15T03:40:37;101984.53;;;4.00;nan
37694;BME280;23531;50.122;8.644;2023-02-15T03:42:58;101986.06;;;4.14;nan
37694;BME280;23531;50.122;8.644;2023-02-15T03:45:02;101982.66;;;4.12;nan
37694;BME280;23531;50.122;8.644;2023-02-15T03:47:06;101987.31;;;4.20;nan
37694;BME280;23531;50.122;8.644;2023-02-15T03:49:10;101985.25;;;4.23;nan
37694;BME280;23531;50.122;8.644;2023-02-15T03:51:14;101985.00;;;4.26;nan
37694;BME280;23531;50.122;8.644;2023-02-15T03:53:37;101978.03;;;4.35;nan
37694;BME280;23531;50.122;8.644;2023-02-15T03:55:41;101983.63;;;4.32;nan
37694;BME280;23531;50.122;8.644;2023-02-15T03:57:42;101983.44;;;4.24;nan
37694;BME280;23531;50.122;8.644;2023-02-15T04:00:02;101982.47;;;4.25;nan
37694;BME280;23531;50.122;8.644;2023-02-15T04:02:21;101982.13;;;4.39;nan
37694;BME280;23531;50.122;8.644;2023-02-15T04:04:26;101979.78;;;4.46;nan
37694;BME280;23531;50.122;8.644;2023-02-15T04:06:29;101981.22;;;4.50;nan
37694;BME280;23531;50.122;8.644;2023-02-15T04:08:30;101977.06;;;4.36;nan
37694;BME280;23531;50.122;8.644;2023-02-15T04:10:47;101979.09;;;4.53;nan
37694;BME280;23531;50.122;8.644;2023-02-15T04:12:56;101979.94;;;4.54;nan
37694;BME280;23531;50.122;8.644;2023-02-15T04:14:57;101980.09;;;4.52;nan
37694;BME280;23531;50.122;8.644;2023-02-15T04:17:16;101971.41;;;4.50;nan
37694;BME280;23531;50.122;8.644;2023-02-15T04:19:17;101973.59;;;4.45;nan
37694;BME280;23531;50.122;8.644;2023-02-15T04:21:36;101973.47;;;4.47;nan
37694;BME280;23531;50.122;8.644;2023-02-15T04:23:54;101969.66;;;4.40;nan
37694;BME280;23531;50.122;8.644;2023-02-15T04:26:14;101975.63;;;4.32;nan
37694;BME280;23531;50.122;8.644;2023-02-15T04:28:16;101972.13;;;4.31;nan
37694;BME280;23531;50.122;8.644;2023-02-15T04:30:17;101973.50;;;4.26;nan
37694;BME280;23531;50.122;8.644;2023-02-15T04:32:19;101973.22;;;4.29;nan
37694;BME280;23531;50.122;8.644;2023-02-15T04:34:20;101970.06;;;4.35;nan
37694;BME280;23531;50.122;8.644;2023-02-15T04:36:22;101963.66;;;4.47;nan
37694;BME280;23531;50.122;8.644;2023-02-15T04:38:23;101961.97;;;4.46;nan
37694;BME280;23531;50.122;8.644;2023-02-15T04:40:24;101963.50;;;4.39;nan
37694;BME280;23531;50.122;8.644;2023-02-15T04:42:27;101967.97;;;4.38;nan
37694;BME280;23531;50.122;8.644;2023-02-15T04:44:28;101962.97;;;4.45;nan
37694;BME280;23531;50.122;8.644;2023-02-15T04:46:29;101969.66;;;4.40;nan
37694;BME280;23531;50.122;8.644;2023-02-15T04:48:31;101961.59;;;4.51;nan
37694;BME280;23531;50.122;8.644;2023-02-15T04:50:32;101963.53;;;4.49;nan
37694;BME280;23531;50.122;8.644;2023-02-15T04:52:33;101960.50;;;4.63;nan
37694;BME280;23531;50.122;8.644;2023-02-15T04:54:34;101954.06;;;4.65;nan
37694;BME280;23531;50.122;8.644;2023-02-15T04:56:36;101960.91;;;4.58;nan
37694;BME280;23531;50.122;8.644;2023-02-15T04:58:43;101961.53;;;4.41;nan
37694;BME280;23531;50.122;8.644;2023-02-15T05:00:44;101958.94;;;4.30;nan
37694;BME280;23531;50.122;8.644;2023-02-15T05:02:46;101957.03;;;4.42;nan
37694;BME280;23531;50.122;8.644;2023-02-15T05:04:47;101957.03;;;4.42;nan
37694;BME280;23531;50.122;8.644;2023-02-15T05:06:48;101958.44;;;4.36;nan
37694;BME280;23531;50.122;8.644;2023-02-15T05:08:50;101958.94;;;4.30;nan
37694;BME280;23531;50.122;8.644;2023-02-15T05:10:51;101957.91;;;4.21;nan
37694;BME280;23531;50.122;8.644;2023-02-15T05:12:53;101957.47;;;4.37;nan
37694;BME280;23531;50.122;8.644;2023-02-15T05:14:56;101962.66;;;4.38;nan
37694;BME280;23531;50.122;8.644;2023-02-15T05:16:57;101960.41;;;4.44;nan
37694;BME280;23531;50.122;8.644;2023-02-15T05:19:00;101947.78;;;4.36;nan
37694;BME280;23531;50.122;8.644;2023-02-15T05:21:02;101952.28;;;4.15;nan
37694;BME280;23531;50.122;8.644;2023-02-15T05:23:03;101949.97;;;4.31;nan
37694;BME280;23531;50.122;8.644;2023-02-15T05:25:04;101954.06;;;4.35;nan
37694;BME280;23531;50.122;8.644;2023-02-15T05:27:23;101943.75;;;4.21;nan
37694;BME280;23531;50.122;8.644;2023-02-15T05:29:42;101943.50;;;4.24;nan
37694;BME280;23531;50.122;8.644;2023-02-15T05:31:45;101946.03;;;4.25;nan
37694;BME280;23531;50.122;8.644;2023-02-15T05:33:47;101944.31;;;4.15;nan
37694;BME280;23531;50.122;8.644;2023-02-15T05:35:48;101944.03;;;3.97;nan
37694;BME280;23531;50.122;8.644;2023-02-15T05:37:49;101943.59;;;3.92;nan
37694;BME280;23531;50.122;8.644;2023-02-15T05:39:50;101947.72;;;3.85;nan
37694;BME280;23531;50.122;8.644;2023-02-15T05:41:52;101941.25;;;3.98;nan
37694;BME280;23531;50.122;8.644;2023-02-15T05:43:54;101941.44;;;3.86;nan
37694;BME280;23531;50.122;8.644;2023-02-15T05:45:56;101942.03;;;3.89;nan
37694;BME280;23531;50.122;8.644;2023-02-15T05:47:58;101945.22;;;4.04;nan
37694;BME280;23531;50.122;8.644;2023-02-15T05:49:59;101939.00;;;3.94;nan
37694;BME280;23531;50.122;8.644;2023-02-15T05:52:01;101946.69;;;3.97;nan
37694;BME280;23531;50.122;8.644;2023-02-15T05:54:02;101949.94;;;4.21;nan
37694;BME280;23531;50.122;8.644;2023-02-15T05:56:04;101953.31;;;4.23;nan
37694;BME280;23531;50.122;8.644;2023-02-15T05:58:05;101948.44;;;4.08;nan
37694;BME280;23531;50.122;8.644;2023-02-15T06:00:08;101948.78;;;4.14;nan
37694;BME280;23531;50.122;8.644;2023-02-15T06:02:09;101949.81;;;4.23;nan
37694;BME280;23531;50.122;8.644;2023-02-15T06:04:13;101954.34;;;4.32;nan
37694;BME280;23531;50.122;8.644;2023-02-15T06:06:14;101951.72;;;4.42;nan
37694;BME280;23531;50.122;8.644;2023-02-15T06:08:15;101952.56;;;4.42;nan
37694;BME280;23531;50.122;8.644;2023-02-15T06:10:17;101961.81;;;4.38;nan
37694;BME280;23531;50.122;8.644;2023-02-15T06:12:18;101956.56;;;4.57;nan
37694;BME280;23531;50.122;8.644;2023-02-15T06:14:19;101963.03;;;4.34;nan
37694;BME280;23531;50.122;8.644;2023-02-15T06:16:21;101964.34;;;4.19;nan
37694;BME280;23531;50.122;8.644;2023-02-15T06:18:22;101967.97;;;4.18;nan
37694;BME280;23531;50.122;8.644;2023-02-15T06:20:25;101967.47;;;4.03;nan
37694;BME280;23531;50.122;8.644;2023-02-15T06:22:26;101961.13;;;3.94;nan
37694;BME280;23531;50.122;8.644;2023-02-15T06:24:27;101957.81;;;4.02;nan
37694;BME280;23531;50.122;8.644;2023-02-15T06:26:28;101960.47;;;4.02;nan
37694;BME280;23531;50.122;8.644;2023-02-15T06:28:30;101968.69;;;3.99;nan
37694;BME280;23531;50.122;8.644;2023-02-15T06:30:31;101963.19;;;3.91;nan
37694;BME280;23531;50.122;8.644;2023-02-15T06:32:32;101966.81;;;4.11;nan
37694;BME280;23531;50.122;8.644;2023-02-15T06:34:34;101965.06;;;4.21;nan
37694;BME280;23531;50.122;8.644;2023-02-15T06:36:36;101968.38;;;4.13;nan
37694;BME280;23531;50.122;8.644;2023-02-15T06:38:37;101965.13;;;3.89;nan
37694;BME280;23531;50.122;8.644;2023-02-15T06:40:39;101964.72;;;3.73;nan
37694;BME280;23531;50.122;8.644;2023-02-15T06:42:40;101973.16;;;3.78;nan
37694;BME280;23531;50.122;8.644;2023-02-15T06:44:42;101972.22;;;3.99;nan
37694;BME280;23531;50.122;8.644;2023-02-15T06:46:43;101971.13;;;4.02;nan
37694;BME280;23531;50.122;8.644;2023-02-15T06:48:44;101980.84;;;3.92;nan
37694;BME280;23531;50.122;8.644;2023-02-15T06:50:46;101977.66;;;3.98;nan
37694;BME280;23531;50.122;8.644;2023-02-15T06:52:48;101981.56;;;4.15;nan
37694;BME280;23531;50.122;8.644;2023-02-15T06:54:50;101981.88;;;4.21;nan
37694;BME280;23531;50.122;8.644;2023-02-15T06:56:51;101983.25;;;4.16;nan
37694;BME280;23531;50.122;8.644;2023-02-15T06:58:53;101986.13;;;4.03;nan
37694;BME280;23531;50.122;8.644;2023-02-15T07:00:54;101995.31;;;3.99;nan
37694;BME280;23531;50.122;8.644;2023-02-15T07:02:57;101990.72;;;4.01;nan
37694;BME280;23531;50.122;8.644;2023-02-15T07:04:58;101993.13;;;4.04;nan
37694;BME280;23531;50.122;8.644;2023-02-15T07:06:59;101995.13;;;4.12;nan
37694;BME280;23531;50.122;8.644;2023-02-15T07:09:02;102001.50;;;3.99;nan
37694;BME280;23531;50.122;8.644;2023-02-15T07:11:04;102004.50;;;3.74;nan
37694;BME280;23531;50.122;8.644;2023-02-15T07:13:23;102002.59;;;3.97;nan
37694;BME280;23531;50.122;8.644;2023-02-15T07:15:24;102003.38;;;4.09;nan
37694;BME280;23531;50.122;8.644;2023-02-15T07:17:26;101996.69;;;4.14;nan
37694;BME280;23531;50.122;8.644;2023-02-15T07:19:28;101998.50;;;4.14;nan
37694;BME280;23531;50.122;8.644;2023-02-15T07:21:29;101997.00;;;4.00;nan
37694;BME280;23531;50.122;8.644;2023-02-15T07:23:30;102002.50;;;3.87;nan
37694;BME280;23531;50.122;8.644;2023-02-15T07:25:33;101999.84;;;4.08;nan
37694;BME280;23531;50.122;8.644;2023-02-15T07:27:34;101990.59;;;4.03;nan
37694;BME280;23531;50.122;8.644;2023-02-15T07:29:36;101992.78;;;4.18;nan
37694;BME280;23531;50.122;8.644;2023-02-15T07:31:37;101988.84;;;4.13;nan
37694;BME280;23531;50.122;8.644;2023-02-15T07:33:38;101986.16;;;3.92;nan
37694;BME280;23531;50.122;8.644;2023-02-15T07:35:45;101982.84;;;3.99;nan
37694;BME280;23531;50.122;8.644;2023-02-15T07:37:47;101986.22;;;4.22;nan
37694;BME280;23531;50.122;8.644;2023-02-15T07:39:48;101991.19;;;4.27;nan
37694;BME280;23531;50.122;8.644;2023-02-15T07:41:50;101988.16;;;4.41;nan
37694;BME280;23531;50.122;8.644;2023-02-15T07:43:52;101989.19;;;4.29;nan
37694;BME280;23531;50.122;8.644;2023-02-15T07:45:53;101985.56;;;4.30;nan
37694;BME280;23531;50.122;8.644;2023-02-15T07:47:54;101986.09;;;4.24;nan
37694;BME280;23531;50.122;8.644;2023-02-15T07:49:55;101982.06;;;4.09;nan
37694;BME280;23531;50.122;8.644;2023-02-15T07:51:57;101986.69;;;4.07;nan
37694;BME280;23531;50.122;8.644;2023-02-15T07:53:58;101983.16;;;3.85;nan
37694;BME280;23531;50.122;8.644;2023-02-15T07:55:59;101980.91;;;4.01;nan
37694;BME280;23531;50.122;8.644;2023-02-15T07:58:02;101980.22;;;3.68;nan
37694;BME280;23531;50.122;8.644;2023-02-15T08:00:04;101976.19;;;3.73;nan
37694;BME280;23531;50.122;8.644;2023-02-15T08:02:05;101985.75;;;3.76;nan
37694;BME280;23531;50.122;8.644;2023-02-15T08:04:09;101985.31;;;3.91;nan
37694;BME280;23531;50.122;8.644;2023-02-15T08:06:11;101981.16;;;3.98;nan
37694;BME280;23531;50.122;8.644;2023-02-15T08:08:13;101980.91;;;4.01;nan
37694;BME280;23531;50.122;8.644;2023-02-15T08:10:29;101979.59;;;3.75;nan
37694;BME280;23531;50.122;8.644;2023-02-15T08:12:45;101983.22;;;3.74;nan
37694;BME280;23531;50.122;8.644;2023-02-15T08:14:47;101988.31;;;3.98;nan
37694;BME280;23531;50.122;8.644;2023-02-15T08:16:49;101984.84;;;3.86;nan
37694;BME280;23531;50.122;8.644;2023-02-15T08:18:51;101982.53;;;3.93;nan
37694;BME280;23531;50.122;8.644;2023-02-15T08:20:52;101981.53;;;3.73;nan
37694;BME280;23531;50.122;8.644;2023-02-15T08:22:53;101985.84;;;3.53;nan
37694;BME280;23531;50.122;8.644;2023-02-15T08:24:55;101985.25;;;3.82;nan
37694;BME280;23531;50.122;8.644;2023-02-15T08:26:56;101976.00;;;3.65;nan
37694;BME280;23531;50.122;8.644;2023-02-15T08:28:58;101973.34;;;3.65;nan
37694;BME280;23531;50.122;8.644;2023-02-15T08:31:05;101974.25;;;3.75;nan
37694;BME280;23531;50.122;8.644;2023-02-15T08:33:06;101972.28;;;3.88;nan
37694;BME280;23531;50.122;8.644;2023-02-15T08:35:09;101980.66;;;4.05;nan
37694;BME280;23531;50.122;8.644;2023-02-15T08:37:11;101973.31;;;4.18;nan
37694;BME280;23531;50.122;8.644;2023-02-15T08:39:12;101974.56;;;4.14;nan
37694;BME280;23531;50.122;8.644;2023-02-15T08:41:15;101971.34;;;4.20;nan
37694;BME280;23531;50.122;8.644;2023-02-15T08:43:17;101968.63;;;4.31;nan
37694;BME280;23531;50.122;8.644;2023-02-15T08:45:18;101971.09;;;4.23;nan
37694;BME280;23531;50.122;8.644;2023-02-15T08:47:21;101974.59;;;4.23;nan
37694;BME280;23531;50.122;8.644;2023-02-15T08:49:22;101968.69;;;4.20;nan
37694;BME280;23531;50.122;8.644;2023-02-15T08:51:24;101964.47;;;4.38;nan
37694;BME280;23531;50.122;8.644;2023-02-15T08:53:26;101964.25;;;4.51;nan
37694;BME280;23531;50.122;8.644;2023-02-15T08:55:27;101957.78;;;4.23;nan
37694;BME280;23531;50.122;8.644;2023-02-15T08:57:28;101969.81;;;3.96;nan
37694;BME280;23531;50.122;8.644;2023-02-15T08:59:30;101964.34;;;3.77;nan
37694;BME280;23531;50.122;8.644;2023-02-15T09:01:31;101965.13;;;3.89;nan
37694;BME280;23531;50.122;8.644;2023-02-15T09:03:34;101960.06;;;3.86;nan
37694;BME280;23531;50.122;8.644;2023-02-15T09:05:35;101954.44;;;3.79;nan
37694;BME280;23531;50.122;8.644;2023-02-15T09:07:37;101955.34;;;3.89;nan
37694;BME280;23531;50.122;8.644;2023-02-15T09:09:38;101956.78;;;3.93;nan
37694;BME280;23531;50.122;8.644;2023-02-15T09:11:40;101951.94;;;4.08;nan
37694;BME280;23531;50.122;8.644;2023-02-15T09:13:42;101957.47;;;4.16;nan
37694;BME280;23531;50.122;8.644;2023-02-15T09:15:44;101951.63;;;4.22;nan
37694;BME280;23531;50.122;8.644;2023-02-15T09:17:46;101951.09;;;4.28;nan
37694;BME280;23531;50.122;8.644;2023-02-15T09:19:49;101947.28;;;4.21;nan
37694;BME280;23531;50.122;8.644;2023-02-15T09:21:50;101943.94;;;4.29;nan
37694;BME280;23531;50.122;8.644;2023-02-15T09:23:55;101947.31;;;4.31;nan
37694;BME280;23531;50.122;8.644;2023-02-15T09:26:00;101947.69;;;4.47;nan
37694;BME280;23531;50.122;8.644;2023-02-15T09:28:02;101942.28;;;4.58;nan
37694;BME280;23531;50.122;8.644;2023-02-15T09:30:03;101941.84;;;4.63;nan
37694;BME280;23531;50.122;8.644;2023-02-15T09:32:05;101941.28;;;4.59;nan
37694;BME280;23531;50.122;8.644;2023-02-15T09:34:06;101936.63;;;4.52;nan
37694;BME280;23531;50.122;8.644;2023-02-15T09:36:15;101928.28;;;4.35;nan
37694;BME280;23531;50.122;8.644;2023-02-15T09:38:16;101926.38;;;4.47;nan
37694;BME280;23531;50.122;8.644;2023-02-15T09:40:18;101931.38;;;4.41;nan
37694;BME280;23531;50.122;8.644;2023-02-15T09:42:23;101921.94;;;4.27;nan
37694;BME280;23531;50.122;8.644;2023-02-15T09:44:31;101928.31;;;4.15;nan
37694;BME280;23531;50.122;8.644;2023-02-15T09:46:36;101928.13;;;4.27;nan
37694;BME280;23531;50.122;8.644;2023-02-15T09:48:39;101939.13;;;4.44;nan
37694;BME280;23531;50.122;8.644;2023-02-15T09:50:43;101939.53;;;4.39;nan
37694;BME280;23531;50.122;8.644;2023-02-15T09:52:52;101934.63;;;4.44;nan
37694;BME280;23531;50.122;8.644;2023-02-15T09:55:00;101940.66;;;4.46;nan
37694;BME280;23531;50.122;8.644;2023-02-15T09:57:04;101931.16;;;4.23;nan
37694;BME280;23531;50.122;8.644;2023-02-15T09:59:11;101943.94;;;4.29;nan
37694;BME280;23531;50.122;8.644;2023-02-15T10:01:17;101938.41;;;4.42;nan
37694;BME280;23531;50.122;8.644;2023-02-15T10:03:25;101931.84;;;4.46;nan
37694;BME280;23531;50.122;8.644;2023-02-15T10:05:36;101942.50;;;4.46;nan
37694;BME280;23531;50.122;8.644;2023-02-15T10:07:49;101948.03;;;4.33;nan
37694;BME280;23531;50.122;8.644;2023-02-15T10:10:00;101952.78;;;4.29;nan
37694;BME280;23531;50.122;8.644;2023-02-15T10:12:08;101950.94;;;4.30;nan
37694;BME280;23531;50.122;8.644;2023-02-15T10:14:23;101952.16;;;4.16;nan
37694;BME280;23531;50.122;8.644;2023-02-15T10:16:39;101950.09;;;4.29;nan
37694;BME280;23531;50.122;8.644;2023-02-15T10:18:45;101953.25;;;4.14;nan
37694;BME280;23531;50.122;8.644;2023-02-15T10:20:50;101959.31;;;4.16;nan
37694;BME280;23531;50.122;8.644;2023-02-15T10:22:59;101958.00;;;4.10;nan
37694;BME280;23531;50.122;8.644;2023-02-15T10:25:10;101953.50;;;3.69;nan
37694;BME280;23531;50.122;8.644;2023-02-15T10:27:18;101957.00;;;3.49;nan
37694;BME280;23531;50.122;8.644;2023-02-15T10:29:23;101960.47;;;3.81;nan
37694;BME280;23531;50.122;8.644;2023-02-15T10:31:29;101950.53;;;4.04;nan
37694;BME280;23531;50.122;8.644;2023-02-15T10:33:37;101946.16;;;4.24;nan
37694;BME280;23531;50.122;8.644;2023-02-15T10:35:40;101946.69;;;4.38;nan
37694;BME280;23531;50.122;8.644;2023-02-15T10:37:45;101947.44;;;4.50;nan
37694;BME280;23531;50.122;8.644;2023-02-15T10:39:49;101948.69;;;4.56;nan
37694;BME280;23531;50.122;8.644;2023-02-15T10:41:57;101954.78;;;4.37;nan
37694;BME280;23531;50.122;8.644;2023-02-15T10:44:05;101946.53;;;4.40;nan
37694;BME280;23531;50.122;8.644;2023-02-15T10:46:11;101944.66;;;4.31;nan
37694;BME280;23531;50.122;8.644;2023-02-15T10:48:23;101945.94;;;4.06;nan
37694;BME280;23531;50.122;8.644;2023-02-15T10:50:34;101940.63;;;4.06;nan
37694;BME280;23531;50.122;8.644;2023-02-15T10:52:43;101945.59;;;3.99;nan
37694;BME280;23531;50.122;8.644;2023-02-15T10:54:53;101942.56;;;4.04;nan
37694;BME280;23531;50.122;8.644;2023-02-15T10:57:02;101938.34;;;4.01;nan
37694;BME280;23531;50.122;8.644;2023-02-15T11:01:21;101936.31;;;4.45;nan
37694;BME280;23531;50.122;8.644;2023-02-15T11:03:32;101939.38;;;4.41;nan
37694;BME280;23531;50.122;8.644;2023-02-15T11:05:39;101933.50;;;4.37;nan
37694;BME280;23531;50.122;8.644;2023-02-15T11:07:43;101936.41;;;4.34;nan
37694;BME280;23531;50.122;8.644;2023-02-15T11:09:46;101937.81;;;4.28;nan
37694;BME280;23531;50.122;8.644;2023-02-15T11:11:50;101930.34;;;4.01;nan
37694;BME280;23531;50.122;8.644;2023-02-15T11:13:54;101937.94;;;4.27;nan
37694;BME280;23531;50.122;8.644;2023-02-15T11:16:00;101929.84;;;4.38;nan
37694;BME280;23531;50.122;8.644;2023-02-15T11:18:05;101924.00;;;4.54;nan
37694;BME280;23531;50.122;8.644;2023-02-15T11:20:11;101923.16;;;4.53;nan